Meath Environmental Platform

Observations for Trim Patrick St

Time AQI Temp °C Hum % Pres Pa CO μg/m³ H₂S μg/m³ NO μg/m³ NO₂ μg/m³ O₃ μg/m³ SO₂ μg/m³ PM1 μg/m³ PM2.5 μg/m³ PM10 μg/m³
Thursday 27 August 2026
18:12 3 20.7 76 38,460 0 3.32 0.69 12.53 53.03 2.92 16.57 24.61 27.07
18:11 3 20.7 76 38,460 0 4.03 0.64 14.97 45.82 3.2 16.57 23.91 26.31
18:10 3 20.7 76 38,460 0 3.85 0.55 12.87 49.8 3.58 15.71 22.51 24.76
18:09 3 20.7 76 38,460 0 2.74 0.69 12.5 50 2.61 17.43 23.94 26.33
18:08 3 20.7 76 38,460 0 2.37 0.85 12.77 46.56 2.91 16.57 21.81 23.99
18:07 3 20.8 76 38,460 0 2.05 0.93 10.82 53.34 2.75 16.57 23.95 26.35
18:06 3 20.8 76 38,460 0 2.24 1.53 10.47 47.43 2.88 18.29 26.08 28.69
18:05 3 20.8 76 38,460 0 2.48 1.87 12.54 45.76 3.5 17.43 23.95 26.35
17:58 3 21 75 38,460 0 1.76 2.24 12.62 44.56 2.72 18.29 27.59 30.35
17:56 3 21 75 38,460 0 1.97 1.5 13.22 47.82 2.73 20 27.59 30.35
17:51 3 21.1 75 38,460 0 1.41 1.24 8.98 49.89 3.22 20 28.31 31.14
17:50 3 21.1 75 38,460 0 2.75 1.23 12.25 50.27 3.63 20 29.72 30.07
17:49 3 21.1 75 38,460 0 2.89 0.98 12.74 49.79 3.12 19.14 26.18 28.8
17:48 3 21.1 75 38,460 0 1.15 0.82 9.34 53.64 3.24 18.29 24.76 27.23
17:47 3 21.1 75 38,460 0 0.65 1.03 8.43 52.14 3.1 18.29 26.9 29.59
17:46 3 21.1 75 38,460 0 0.72 0.72 8.56 51.74 3.15 19.14 28.33 31.16
17:45 3 21.2 75 38,460 0 0.96 0.75 8.37 52.12 3.02 18.29 26.19 28.81
17:44 3 21.2 75 38,460 0 2.3 0.92 9.62 51.96 3.86 15.71 24.76 27.23
17:43 3 21.2 75 38,460 0 3.49 1.1 15.64 49.46 3.37 14.86 22.61 24.87
17:42 3 21.2 75 38,460 0 2.01 0.9 12.79 45.33 3.31 14.86 21.2 23.32